sensor_id;sensor_type;location;lat;lon;timestamp;temperature;humidity
44487;DHT22;30191;50.908;6.962;2022-08-03T00:01:35;24.60;99.90
44487;DHT22;30191;50.908;6.962;2022-08-03T00:04:01;24.60;99.90
44487;DHT22;30191;50.908;6.962;2022-08-03T00:06:26;24.60;99.90
44487;DHT22;30191;50.908;6.962;2022-08-03T00:08:52;24.60;99.90
44487;DHT22;30191;50.908;6.962;2022-08-03T00:11:18;24.50;99.90
44487;DHT22;30191;50.908;6.962;2022-08-03T00:13:44;24.60;99.90
44487;DHT22;30191;50.908;6.962;2022-08-03T00:16:10;24.50;99.90
44487;DHT22;30191;50.908;6.962;2022-08-03T00:18:36;24.50;99.90
44487;DHT22;30191;50.908;6.962;2022-08-03T00:21:03;24.50;99.90
44487;DHT22;30191;50.908;6.962;2022-08-03T00:23:29;24.50;99.90
44487;DHT22;30191;50.908;6.962;2022-08-03T00:25:55;24.50;99.90
44487;DHT22;30191;50.908;6.962;2022-08-03T00:28:20;24.40;99.90
44487;DHT22;30191;50.908;6.962;2022-08-03T00:30:46;24.40;99.90
44487;DHT22;30191;50.908;6.962;2022-08-03T00:33:12;24.30;99.90
44487;DHT22;30191;50.908;6.962;2022-08-03T00:35:37;24.30;99.90
44487;DHT22;30191;50.908;6.962;2022-08-03T00:38:04;24.30;99.90
44487;DHT22;30191;50.908;6.962;2022-08-03T00:40:30;24.30;99.90
44487;DHT22;30191;50.908;6.962;2022-08-03T00:43:01;24.30;99.90
44487;DHT22;30191;50.908;6.962;2022-08-03T00:45:29;24.40;99.90
44487;DHT22;30191;50.908;6.962;2022-08-03T00:47:56;24.30;99.90
44487;DHT22;30191;50.908;6.962;2022-08-03T00:50:23;24.30;99.90
44487;DHT22;30191;50.908;6.962;2022-08-03T00:52:52;24.30;99.90
44487;DHT22;30191;50.908;6.962;2022-08-03T00:55:18;24.20;99.90
44487;DHT22;30191;50.908;6.962;2022-08-03T00:57:44;24.20;99.90
44487;DHT22;30191;50.908;6.962;2022-08-03T01:00:12;24.20;99.90
44487;DHT22;30191;50.908;6.962;2022-08-03T01:02:39;24.20;99.90
44487;DHT22;30191;50.908;6.962;2022-08-03T01:05:05;24.10;99.90
44487;DHT22;30191;50.908;6.962;2022-08-03T01:16:27;24.00;99.90
44487;DHT22;30191;50.908;6.962;2022-08-03T01:24:58;23.80;99.90
44487;DHT22;30191;50.908;6.962;2022-08-03T01:27:50;23.70;99.90
44487;DHT22;30191;50.908;6.962;2022-08-03T01:30:17;23.70;99.90
44487;DHT22;30191;50.908;6.962;2022-08-03T01:33:03;23.70;99.90
44487;DHT22;30191;50.908;6.962;2022-08-03T01:35:34;23.70;99.90
44487;DHT22;30191;50.908;6.962;2022-08-03T01:38:05;23.60;99.90
44487;DHT22;30191;50.908;6.962;2022-08-03T01:40:35;23.60;99.90
44487;DHT22;30191;50.908;6.962;2022-08-03T01:43:03;23.60;99.90
44487;DHT22;30191;50.908;6.962;2022-08-03T01:45:31;23.60;99.90
44487;DHT22;30191;50.908;6.962;2022-08-03T01:47:58;23.60;99.90
44487;DHT22;30191;50.908;6.962;2022-08-03T01:50:28;23.60;99.90
44487;DHT22;30191;50.908;6.962;2022-08-03T01:52:55;23.50;99.90
44487;DHT22;30191;50.908;6.962;2022-08-03T01:55:22;23.50;99.90
44487;DHT22;30191;50.908;6.962;2022-08-03T01:57:51;23.50;99.90
44487;DHT22;30191;50.908;6.962;2022-08-03T02:00:17;23.50;99.90
44487;DHT22;30191;50.908;6.962;2022-08-03T02:02:45;23.50;99.90
44487;DHT22;30191;50.908;6.962;2022-08-03T02:05:14;23.40;99.90
44487;DHT22;30191;50.908;6.962;2022-08-03T02:07:41;23.40;99.90
44487;DHT22;30191;50.908;6.962;2022-08-03T02:10:10;23.40;99.90
44487;DHT22;30191;50.908;6.962;2022-08-03T02:12:37;23.40;99.90
44487;DHT22;30191;50.908;6.962;2022-08-03T02:15:04;23.40;99.90
44487;DHT22;30191;50.908;6.962;2022-08-03T02:17:32;23.40;99.90
44487;DHT22;30191;50.908;6.962;2022-08-03T02:20:00;23.50;99.90
44487;DHT22;30191;50.908;6.962;2022-08-03T02:22:27;23.40;99.90
44487;DHT22;30191;50.908;6.962;2022-08-03T02:24:54;23.40;99.90
44487;DHT22;30191;50.908;6.962;2022-08-03T02:27:26;23.40;99.90
44487;DHT22;30191;50.908;6.962;2022-08-03T02:30:00;23.30;99.90
44487;DHT22;30191;50.908;6.962;2022-08-03T02:32:33;23.30;99.90
44487;DHT22;30191;50.908;6.962;2022-08-03T02:35:01;23.20;99.90
44487;DHT22;30191;50.908;6.962;2022-08-03T02:37:31;23.20;99.90
44487;DHT22;30191;50.908;6.962;2022-08-03T02:40:01;23.10;99.90
44487;DHT22;30191;50.908;6.962;2022-08-03T02:42:28;23.10;99.90
44487;DHT22;30191;50.908;6.962;2022-08-03T02:44:58;23.10;99.90
44487;DHT22;30191;50.908;6.962;2022-08-03T02:47:27;23.00;99.90
44487;DHT22;30191;50.908;6.962;2022-08-03T02:49:56;22.90;99.90
44487;DHT22;30191;50.908;6.962;2022-08-03T02:52:26;22.90;99.90
44487;DHT22;30191;50.908;6.962;2022-08-03T02:54:57;22.80;99.90
44487;DHT22;30191;50.908;6.962;2022-08-03T02:57:25;22.80;99.90
44487;DHT22;30191;50.908;6.962;2022-08-03T02:59:53;22.80;99.90
44487;DHT22;30191;50.908;6.962;2022-08-03T03:02:20;22.80;99.90
44487;DHT22;30191;50.908;6.962;2022-08-03T03:04:49;22.80;99.90
44487;DHT22;30191;50.908;6.962;2022-08-03T03:07:16;22.80;99.90
44487;DHT22;30191;50.908;6.962;2022-08-03T03:09:42;22.70;99.90
44487;DHT22;30191;50.908;6.962;2022-08-03T03:12:10;22.70;99.90
44487;DHT22;30191;50.908;6.962;2022-08-03T03:14:37;22.70;99.90
44487;DHT22;30191;50.908;6.962;2022-08-03T03:17:06;22.70;99.90
44487;DHT22;30191;50.908;6.962;2022-08-03T03:19:33;22.70;99.90
44487;DHT22;30191;50.908;6.962;2022-08-03T03:22:00;22.60;99.90
44487;DHT22;30191;50.908;6.962;2022-08-03T03:24:29;22.60;99.90
44487;DHT22;30191;50.908;6.962;2022-08-03T03:26:56;22.60;99.90
44487;DHT22;30191;50.908;6.962;2022-08-03T03:29:22;22.60;99.90
44487;DHT22;30191;50.908;6.962;2022-08-03T03:31:48;22.50;99.90
44487;DHT22;30191;50.908;6.962;2022-08-03T03:34:15;22.50;99.90
44487;DHT22;30191;50.908;6.962;2022-08-03T03:36:41;22.50;99.90
44487;DHT22;30191;50.908;6.962;2022-08-03T03:39:06;22.50;99.90
44487;DHT22;30191;50.908;6.962;2022-08-03T03:41:32;22.50;99.90
44487;DHT22;30191;50.908;6.962;2022-08-03T03:43:59;22.50;99.90
44487;DHT22;30191;50.908;6.962;2022-08-03T03:46:25;22.40;99.90
44487;DHT22;30191;50.908;6.962;2022-08-03T03:48:50;22.30;99.90
44487;DHT22;30191;50.908;6.962;2022-08-03T03:51:16;22.30;99.90
44487;DHT22;30191;50.908;6.962;2022-08-03T03:53:59;22.30;99.90
44487;DHT22;30191;50.908;6.962;2022-08-03T03:56:25;22.30;99.90
44487;DHT22;30191;50.908;6.962;2022-08-03T03:58:51;22.30;99.90
44487;DHT22;30191;50.908;6.962;2022-08-03T04:01:18;22.30;99.90
44487;DHT22;30191;50.908;6.962;2022-08-03T04:03:44;22.20;99.90
44487;DHT22;30191;50.908;6.962;2022-08-03T04:06:10;22.20;99.90
44487;DHT22;30191;50.908;6.962;2022-08-03T04:08:54;22.30;99.90
44487;DHT22;30191;50.908;6.962;2022-08-03T04:11:42;22.30;99.90
44487;DHT22;30191;50.908;6.962;2022-08-03T04:17:03;22.30;99.90
44487;DHT22;30191;50.908;6.962;2022-08-03T04:19:46;22.30;99.90
44487;DHT22;30191;50.908;6.962;2022-08-03T04:22:15;22.30;99.90
44487;DHT22;30191;50.908;6.962;2022-08-03T04:24:51;22.30;99.90
44487;DHT22;30191;50.908;6.962;2022-08-03T04:27:23;22.30;99.90
44487;DHT22;30191;50.908;6.962;2022-08-03T04:29:52;22.30;99.90
44487;DHT22;30191;50.908;6.962;2022-08-03T04:32:19;22.30;99.90
44487;DHT22;30191;50.908;6.962;2022-08-03T04:34:48;22.30;99.90
44487;DHT22;30191;50.908;6.962;2022-08-03T04:37:20;22.20;99.90
44487;DHT22;30191;50.908;6.962;2022-08-03T04:39:49;22.20;99.90
44487;DHT22;30191;50.908;6.962;2022-08-03T04:42:19;22.10;99.90
44487;DHT22;30191;50.908;6.962;2022-08-03T04:44:47;22.10;99.90
44487;DHT22;30191;50.908;6.962;2022-08-03T04:47:13;22.10;99.90
44487;DHT22;30191;50.908;6.962;2022-08-03T04:49:39;22.10;99.90
44487;DHT22;30191;50.908;6.962;2022-08-03T04:52:07;22.10;99.90
44487;DHT22;30191;50.908;6.962;2022-08-03T04:54:43;22.20;99.90
44487;DHT22;30191;50.908;6.962;2022-08-03T04:57:10;22.20;99.90
44487;DHT22;30191;50.908;6.962;2022-08-03T04:59:36;22.10;99.90
44487;DHT22;30191;50.908;6.962;2022-08-03T05:02:02;22.20;99.90
44487;DHT22;30191;50.908;6.962;2022-08-03T05:04:27;22.20;99.90
44487;DHT22;30191;50.908;6.962;2022-08-03T05:06:53;22.10;99.90
44487;DHT22;30191;50.908;6.962;2022-08-03T05:09:19;22.10;99.90
44487;DHT22;30191;50.908;6.962;2022-08-03T05:11:45;22.00;99.90
44487;DHT22;30191;50.908;6.962;2022-08-03T05:14:10;22.00;99.90
44487;DHT22;30191;50.908;6.962;2022-08-03T05:16:36;22.10;99.90
44487;DHT22;30191;50.908;6.962;2022-08-03T05:19:02;22.10;99.90
44487;DHT22;30191;50.908;6.962;2022-08-03T05:21:27;22.10;99.90
44487;DHT22;30191;50.908;6.962;2022-08-03T05:23:53;22.10;99.90
44487;DHT22;30191;50.908;6.962;2022-08-03T05:26:19;22.10;99.90
44487;DHT22;30191;50.908;6.962;2022-08-03T05:28:45;22.10;99.90
44487;DHT22;30191;50.908;6.962;2022-08-03T05:31:11;22.10;99.90
44487;DHT22;30191;50.908;6.962;2022-08-03T05:33:37;22.10;99.90
44487;DHT22;30191;50.908;6.962;2022-08-03T05:36:04;22.20;99.90
44487;DHT22;30191;50.908;6.962;2022-08-03T05:38:31;22.40;99.90
44487;DHT22;30191;50.908;6.962;2022-08-03T05:40:57;22.20;99.90
44487;DHT22;30191;50.908;6.962;2022-08-03T05:43:23;22.20;99.90
44487;DHT22;30191;50.908;6.962;2022-08-03T05:45:49;22.20;99.90
44487;DHT22;30191;50.908;6.962;2022-08-03T05:48:14;22.20;99.90
44487;DHT22;30191;50.908;6.962;2022-08-03T05:50:40;22.20;99.90
44487;DHT22;30191;50.908;6.962;2022-08-03T05:53:06;22.20;99.90
44487;DHT22;30191;50.908;6.962;2022-08-03T05:55:31;22.40;99.90
44487;DHT22;30191;50.908;6.962;2022-08-03T05:57:57;22.40;99.90
44487;DHT22;30191;50.908;6.962;2022-08-03T06:00:23;22.40;99.90
44487;DHT22;30191;50.908;6.962;2022-08-03T06:02:49;22.50;99.90
44487;DHT22;30191;50.908;6.962;2022-08-03T06:05:15;22.60;99.90
44487;DHT22;30191;50.908;6.962;2022-08-03T06:07:41;22.60;99.90
44487;DHT22;30191;50.908;6.962;2022-08-03T06:10:07;22.70;99.90
44487;DHT22;30191;50.908;6.962;2022-08-03T06:12:33;22.70;99.90
44487;DHT22;30191;50.908;6.962;2022-08-03T06:15:03;22.80;99.90
44487;DHT22;30191;50.908;6.962;2022-08-03T06:17:29;22.70;99.90
44487;DHT22;30191;50.908;6.962;2022-08-03T06:19:55;22.80;99.90
44487;DHT22;30191;50.908;6.962;2022-08-03T06:22:20;22.70;99.90
44487;DHT22;30191;50.908;6.962;2022-08-03T06:24:46;22.80;99.90
44487;DHT22;30191;50.908;6.962;2022-08-03T06:27:12;22.90;99.90
44487;DHT22;30191;50.908;6.962;2022-08-03T06:29:37;22.90;99.90
44487;DHT22;30191;50.908;6.962;2022-08-03T06:32:03;22.90;99.90
44487;DHT22;30191;50.908;6.962;2022-08-03T06:34:29;22.90;99.90
44487;DHT22;30191;50.908;6.962;2022-08-03T06:36:55;22.90;99.90
44487;DHT22;30191;50.908;6.962;2022-08-03T06:39:21;23.00;99.90
44487;DHT22;30191;50.908;6.962;2022-08-03T06:41:46;23.00;99.90
44487;DHT22;30191;50.908;6.962;2022-08-03T06:44:12;23.00;99.90
44487;DHT22;30191;50.908;6.962;2022-08-03T06:46:38;23.10;99.90
44487;DHT22;30191;50.908;6.962;2022-08-03T06:49:05;23.10;99.90
44487;DHT22;30191;50.908;6.962;2022-08-03T06:51:31;23.20;99.90
44487;DHT22;30191;50.908;6.962;2022-08-03T06:53:57;23.20;99.90
44487;DHT22;30191;50.908;6.962;2022-08-03T06:56:22;23.20;99.90
44487;DHT22;30191;50.908;6.962;2022-08-03T06:58:48;23.30;99.90
44487;DHT22;30191;50.908;6.962;2022-08-03T07:01:14;23.40;99.90
44487;DHT22;30191;50.908;6.962;2022-08-03T07:03:39;23.30;99.90
44487;DHT22;30191;50.908;6.962;2022-08-03T07:06:05;23.30;99.90
44487;DHT22;30191;50.908;6.962;2022-08-03T07:08:31;23.40;99.90
44487;DHT22;30191;50.908;6.962;2022-08-03T07:10:57;23.40;99.90
44487;DHT22;30191;50.908;6.962;2022-08-03T07:13:22;23.40;99.90
44487;DHT22;30191;50.908;6.962;2022-08-03T07:15:48;23.50;99.90
44487;DHT22;30191;50.908;6.962;2022-08-03T07:18:14;23.50;99.90
44487;DHT22;30191;50.908;6.962;2022-08-03T07:20:39;23.50;99.90
44487;DHT22;30191;50.908;6.962;2022-08-03T07:23:05;23.60;99.90
44487;DHT22;30191;50.908;6.962;2022-08-03T07:25:31;23.60;99.90
44487;DHT22;30191;50.908;6.962;2022-08-03T07:27:56;23.60;99.90
44487;DHT22;30191;50.908;6.962;2022-08-03T07:30:22;23.70;99.90
44487;DHT22;30191;50.908;6.962;2022-08-03T07:32:48;23.70;99.90
44487;DHT22;30191;50.908;6.962;2022-08-03T07:35:14;23.70;99.90
44487;DHT22;30191;50.908;6.962;2022-08-03T07:37:40;23.70;99.90
44487;DHT22;30191;50.908;6.962;2022-08-03T07:40:06;23.80;99.90
44487;DHT22;30191;50.908;6.962;2022-08-03T07:42:32;23.70;99.90
44487;DHT22;30191;50.908;6.962;2022-08-03T07:44:58;23.80;99.90
44487;DHT22;30191;50.908;6.962;2022-08-03T07:47:29;23.80;99.90
44487;DHT22;30191;50.908;6.962;2022-08-03T07:49:55;23.80;99.90
44487;DHT22;30191;50.908;6.962;2022-08-03T07:52:21;23.90;99.90
44487;DHT22;30191;50.908;6.962;2022-08-03T07:55:06;23.90;99.90
44487;DHT22;30191;50.908;6.962;2022-08-03T07:57:33;24.00;99.90
44487;DHT22;30191;50.908;6.962;2022-08-03T07:59:59;24.00;99.90
44487;DHT22;30191;50.908;6.962;2022-08-03T08:02:25;24.00;99.90
44487;DHT22;30191;50.908;6.962;2022-08-03T08:04:50;24.00;99.90
44487;DHT22;30191;50.908;6.962;2022-08-03T08:07:16;24.10;99.90
44487;DHT22;30191;50.908;6.962;2022-08-03T08:09:42;24.10;99.90
44487;DHT22;30191;50.908;6.962;2022-08-03T08:12:08;24.20;99.90
44487;DHT22;30191;50.908;6.962;2022-08-03T08:14:35;24.20;99.90
44487;DHT22;30191;50.908;6.962;2022-08-03T08:17:00;24.20;99.90
44487;DHT22;30191;50.908;6.962;2022-08-03T08:19:26;24.30;99.90
44487;DHT22;30191;50.908;6.962;2022-08-03T08:21:52;24.30;99.90
44487;DHT22;30191;50.908;6.962;2022-08-03T08:24:18;24.30;99.90
44487;DHT22;30191;50.908;6.962;2022-08-03T08:26:43;24.30;99.90
44487;DHT22;30191;50.908;6.962;2022-08-03T08:29:09;24.30;99.90
44487;DHT22;30191;50.908;6.962;2022-08-03T08:31:35;24.30;99.90
44487;DHT22;30191;50.908;6.962;2022-08-03T08:34:00;24.40;99.90
44487;DHT22;30191;50.908;6.962;2022-08-03T08:36:33;24.40;99.90
44487;DHT22;30191;50.908;6.962;2022-08-03T08:38:59;24.50;99.90
44487;DHT22;30191;50.908;6.962;2022-08-03T08:41:25;24.50;99.90
44487;DHT22;30191;50.908;6.962;2022-08-03T08:43:53;24.50;99.90
44487;DHT22;30191;50.908;6.962;2022-08-03T08:46:19;24.50;99.90
44487;DHT22;30191;50.908;6.962;2022-08-03T08:48:45;24.60;99.90
44487;DHT22;30191;50.908;6.962;2022-08-03T08:51:13;24.60;99.90
44487;DHT22;30191;50.908;6.962;2022-08-03T08:53:41;24.60;99.90
44487;DHT22;30191;50.908;6.962;2022-08-03T08:56:12;24.60;99.90
44487;DHT22;30191;50.908;6.962;2022-08-03T08:58:52;24.70;99.90
44487;DHT22;30191;50.908;6.962;2022-08-03T09:01:19;24.70;99.90
44487;DHT22;30191;50.908;6.962;2022-08-03T09:03:46;24.80;99.90
44487;DHT22;30191;50.908;6.962;2022-08-03T09:06:12;24.80;99.90
44487;DHT22;30191;50.908;6.962;2022-08-03T09:08:39;24.80;99.90
44487;DHT22;30191;50.908;6.962;2022-08-03T09:11:05;24.90;99.90
44487;DHT22;30191;50.908;6.962;2022-08-03T09:13:34;24.90;99.90
44487;DHT22;30191;50.908;6.962;2022-08-03T09:16:25;24.90;99.90
44487;DHT22;30191;50.908;6.962;2022-08-03T09:18:53;24.90;99.90
44487;DHT22;30191;50.908;6.962;2022-08-03T09:21:26;25.00;99.90
44487;DHT22;30191;50.908;6.962;2022-08-03T09:23:56;25.00;99.90
44487;DHT22;30191;50.908;6.962;2022-08-03T09:26:27;25.00;99.90
44487;DHT22;30191;50.908;6.962;2022-08-03T09:28:56;25.10;99.90
44487;DHT22;30191;50.908;6.962;2022-08-03T09:31:37;25.20;99.90
44487;DHT22;30191;50.908;6.962;2022-08-03T09:34:07;25.30;99.90
44487;DHT22;30191;50.908;6.962;2022-08-03T09:36:41;25.40;99.90
44487;DHT22;30191;50.908;6.962;2022-08-03T09:39:09;25.50;99.90
44487;DHT22;30191;50.908;6.962;2022-08-03T09:41:46;25.50;99.90
44487;DHT22;30191;50.908;6.962;2022-08-03T09:44:14;25.50;99.90
44487;DHT22;30191;50.908;6.962;2022-08-03T09:47:00;25.60;99.90
44487;DHT22;30191;50.908;6.962;2022-08-03T09:49:25;25.60;99.90
44487;DHT22;30191;50.908;6.962;2022-08-03T09:51:52;25.60;99.90
44487;DHT22;30191;50.908;6.962;2022-08-03T09:54:27;25.60;99.90
44487;DHT22;30191;50.908;6.962;2022-08-03T09:56:53;25.70;99.90
44487;DHT22;30191;50.908;6.962;2022-08-03T09:59:28;25.90;99.90
44487;DHT22;30191;50.908;6.962;2022-08-03T10:01:54;26.00;99.90
44487;DHT22;30191;50.908;6.962;2022-08-03T10:04:21;26.10;99.90
44487;DHT22;30191;50.908;6.962;2022-08-03T10:07:04;26.10;99.90
44487;DHT22;30191;50.908;6.962;2022-08-03T10:09:31;26.10;99.90
44487;DHT22;30191;50.908;6.962;2022-08-03T10:11:57;26.10;99.90
44487;DHT22;30191;50.908;6.962;2022-08-03T10:14:31;26.10;99.90
44487;DHT22;30191;50.908;6.962;2022-08-03T10:16:57;26.10;99.90
44487;DHT22;30191;50.908;6.962;2022-08-03T10:19:23;26.10;99.90
44487;DHT22;30191;50.908;6.962;2022-08-03T10:21:55;26.20;99.90
44487;DHT22;30191;50.908;6.962;2022-08-03T10:24:25;26.30;99.90
44487;DHT22;30191;50.908;6.962;2022-08-03T10:26:58;26.30;99.90
44487;DHT22;30191;50.908;6.962;2022-08-03T10:29:27;26.30;99.90
44487;DHT22;30191;50.908;6.962;2022-08-03T10:31:56;26.40;99.90
44487;DHT22;30191;50.908;6.962;2022-08-03T10:34:25;26.40;99.90
44487;DHT22;30191;50.908;6.962;2022-08-03T10:36:52;26.40;99.90
44487;DHT22;30191;50.908;6.962;2022-08-03T10:39:21;26.40;99.90
44487;DHT22;30191;50.908;6.962;2022-08-03T10:41:49;26.50;99.90
44487;DHT22;30191;50.908;6.962;2022-08-03T10:44:20;26.40;99.90
44487;DHT22;30191;50.908;6.962;2022-08-03T10:46:47;26.50;99.90
44487;DHT22;30191;50.908;6.962;2022-08-03T10:49:16;26.60;99.90
44487;DHT22;30191;50.908;6.962;2022-08-03T10:51:44;26.70;99.90
44487;DHT22;30191;50.908;6.962;2022-08-03T10:57:01;26.80;99.90
44487;DHT22;30191;50.908;6.962;2022-08-03T11:02:11;27.00;99.70
44487;DHT22;30191;50.908;6.962;2022-08-03T11:04:38;27.10;99.50
44487;DHT22;30191;50.908;6.962;2022-08-03T11:07:20;27.20;99.40
44487;DHT22;30191;50.908;6.962;2022-08-03T11:09:52;27.30;99.20
44487;DHT22;30191;50.908;6.962;2022-08-03T11:14:52;27.40;99.30
44487;DHT22;30191;50.908;6.962;2022-08-03T11:17:19;27.40;99.20
44487;DHT22;30191;50.908;6.962;2022-08-03T11:19:47;27.30;99.50
44487;DHT22;30191;50.908;6.962;2022-08-03T11:22:14;27.30;99.40
44487;DHT22;30191;50.908;6.962;2022-08-03T11:27:16;27.30;99.30
44487;DHT22;30191;50.908;6.962;2022-08-03T11:30:08;27.40;99.20
44487;DHT22;30191;50.908;6.962;2022-08-03T11:35:09;27.50;98.80
44487;DHT22;30191;50.908;6.962;2022-08-03T11:37:34;27.60;98.60
44487;DHT22;30191;50.908;6.962;2022-08-03T11:40:01;27.70;98.60
44487;DHT22;30191;50.908;6.962;2022-08-03T11:44:55;27.60;98.70
44487;DHT22;30191;50.908;6.962;2022-08-03T11:47:24;27.60;99.30
44487;DHT22;30191;50.908;6.962;2022-08-03T11:49:54;27.60;99.00
44487;DHT22;30191;50.908;6.962;2022-08-03T11:52:22;27.60;98.80
44487;DHT22;30191;50.908;6.962;2022-08-03T11:54:52;27.80;98.60
44487;DHT22;30191;50.908;6.962;2022-08-03T11:57:32;28.10;98.20
44487;DHT22;30191;50.908;6.962;2022-08-03T11:59:58;28.20;98.00
44487;DHT22;30191;50.908;6.962;2022-08-03T12:02:24;28.20;98.10
44487;DHT22;30191;50.908;6.962;2022-08-03T12:04:56;28.30;97.80
44487;DHT22;30191;50.908;6.962;2022-08-03T12:07:27;28.40;97.70
44487;DHT22;30191;50.908;6.962;2022-08-03T12:10:11;28.50;97.80
44487;DHT22;30191;50.908;6.962;2022-08-03T12:12:37;28.60;97.70
44487;DHT22;30191;50.908;6.962;2022-08-03T12:15:04;28.60;97.70
44487;DHT22;30191;50.908;6.962;2022-08-03T12:19:59;28.70;97.50
44487;DHT22;30191;50.908;6.962;2022-08-03T12:22:38;28.70;97.20
44487;DHT22;30191;50.908;6.962;2022-08-03T12:25:05;28.80;97.50
44487;DHT22;30191;50.908;6.962;2022-08-03T12:27:31;28.90;97.70
44487;DHT22;30191;50.908;6.962;2022-08-03T12:29:58;29.00;97.60
44487;DHT22;30191;50.908;6.962;2022-08-03T12:32:25;29.00;97.30
44487;DHT22;30191;50.908;6.962;2022-08-03T12:34:50;29.20;97.40
44487;DHT22;30191;50.908;6.962;2022-08-03T12:37:20;29.20;97.20
44487;DHT22;30191;50.908;6.962;2022-08-03T12:39:54;29.30;97.00
44487;DHT22;30191;50.908;6.962;2022-08-03T12:42:20;29.40;96.70
44487;DHT22;30191;50.908;6.962;2022-08-03T12:44:46;29.50;96.70
44487;DHT22;30191;50.908;6.962;2022-08-03T12:47:14;29.50;96.20
44487;DHT22;30191;50.908;6.962;2022-08-03T12:49:52;29.60;96.00
44487;DHT22;30191;50.908;6.962;2022-08-03T12:52:20;29.60;95.80
44487;DHT22;30191;50.908;6.962;2022-08-03T12:54:57;29.70;95.90
44487;DHT22;30191;50.908;6.962;2022-08-03T12:57:23;29.80;95.70
44487;DHT22;30191;50.908;6.962;2022-08-03T12:59:49;29.90;95.80
44487;DHT22;30191;50.908;6.962;2022-08-03T13:02:21;29.90;95.90
44487;DHT22;30191;50.908;6.962;2022-08-03T13:04:48;30.00;96.00
44487;DHT22;30191;50.908;6.962;2022-08-03T13:07:15;30.10;99.40
44487;DHT22;30191;50.908;6.962;2022-08-03T13:09:43;30.20;99.90
44487;DHT22;30191;50.908;6.962;2022-08-03T13:12:11;30.30;98.00
44487;DHT22;30191;50.908;6.962;2022-08-03T13:14:37;30.40;99.90
44487;DHT22;30191;50.908;6.962;2022-08-03T13:17:03;30.60;99.20
44487;DHT22;30191;50.908;6.962;2022-08-03T13:19:31;30.70;99.30
44487;DHT22;30191;50.908;6.962;2022-08-03T13:21:57;30.80;96.60
44487;DHT22;30191;50.908;6.962;2022-08-03T13:24:23;30.90;99.30
44487;DHT22;30191;50.908;6.962;2022-08-03T13:26:48;31.10;96.10
44487;DHT22;30191;50.908;6.962;2022-08-03T13:29:16;31.20;99.30
44487;DHT22;30191;50.908;6.962;2022-08-03T13:31:42;31.40;95.50
44487;DHT22;30191;50.908;6.962;2022-08-03T13:34:07;31.50;95.10
44487;DHT22;30191;50.908;6.962;2022-08-03T13:36:34;31.70;96.30
44487;DHT22;30191;50.908;6.962;2022-08-03T13:38:59;31.80;94.70
44487;DHT22;30191;50.908;6.962;2022-08-03T13:41:25;32.00;94.20
44487;DHT22;30191;50.908;6.962;2022-08-03T13:43:50;32.20;99.30
44487;DHT22;30191;50.908;6.962;2022-08-03T13:46:16;32.20;96.30
44487;DHT22;30191;50.908;6.962;2022-08-03T13:48:42;32.30;98.30
44487;DHT22;30191;50.908;6.962;2022-08-03T13:51:08;32.40;95.80
44487;DHT22;30191;50.908;6.962;2022-08-03T13:53:33;32.50;98.60
44487;DHT22;30191;50.908;6.962;2022-08-03T13:55:59;32.50;99.20
44487;DHT22;30191;50.908;6.962;2022-08-03T13:58:24;32.50;93.90
44487;DHT22;30191;50.908;6.962;2022-08-03T14:00:50;32.50;98.10
44487;DHT22;30191;50.908;6.962;2022-08-03T14:03:16;32.40;95.30
44487;DHT22;30191;50.908;6.962;2022-08-03T14:05:42;32.50;93.30
44487;DHT22;30191;50.908;6.962;2022-08-03T14:08:08;32.70;94.80
44487;DHT22;30191;50.908;6.962;2022-08-03T14:10:36;32.90;95.30
44487;DHT22;30191;50.908;6.962;2022-08-03T14:13:03;33.10;94.90
44487;DHT22;30191;50.908;6.962;2022-08-03T14:15:30;33.20;94.60
44487;DHT22;30191;50.908;6.962;2022-08-03T14:17:56;33.40;93.50
44487;DHT22;30191;50.908;6.962;2022-08-03T14:20:22;33.50;91.40
44487;DHT22;30191;50.908;6.962;2022-08-03T14:22:47;33.70;91.00
44487;DHT22;30191;50.908;6.962;2022-08-03T14:25:13;33.80;90.80
44487;DHT22;30191;50.908;6.962;2022-08-03T14:27:39;34.00;90.60
44487;DHT22;30191;50.908;6.962;2022-08-03T14:30:05;34.00;90.60
44487;DHT22;30191;50.908;6.962;2022-08-03T14:32:30;34.10;90.00
44487;DHT22;30191;50.908;6.962;2022-08-03T14:34:56;34.20;90.60
44487;DHT22;30191;50.908;6.962;2022-08-03T14:37:22;34.20;90.70
44487;DHT22;30191;50.908;6.962;2022-08-03T14:39:48;34.30;91.60
44487;DHT22;30191;50.908;6.962;2022-08-03T14:42:13;34.20;90.90
44487;DHT22;30191;50.908;6.962;2022-08-03T14:44:40;34.30;93.60
44487;DHT22;30191;50.908;6.962;2022-08-03T14:47:06;34.30;94.20
44487;DHT22;30191;50.908;6.962;2022-08-03T14:49:31;34.30;91.60
44487;DHT22;30191;50.908;6.962;2022-08-03T14:51:57;34.50;90.00
44487;DHT22;30191;50.908;6.962;2022-08-03T14:54:23;34.50;88.70
44487;DHT22;30191;50.908;6.962;2022-08-03T14:56:49;34.60;90.90
44487;DHT22;30191;50.908;6.962;2022-08-03T14:59:15;34.50;90.60
44487;DHT22;30191;50.908;6.962;2022-08-03T15:01:40;34.60;89.50
44487;DHT22;30191;50.908;6.962;2022-08-03T15:04:06;34.60;87.50
44487;DHT22;30191;50.908;6.962;2022-08-03T15:06:32;34.70;91.40
44487;DHT22;30191;50.908;6.962;2022-08-03T15:08:57;34.70;91.70
44487;DHT22;30191;50.908;6.962;2022-08-03T15:11:23;34.70;90.30
44487;DHT22;30191;50.908;6.962;2022-08-03T15:13:49;34.70;89.00
44487;DHT22;30191;50.908;6.962;2022-08-03T15:16:14;34.80;88.70
44487;DHT22;30191;50.908;6.962;2022-08-03T15:18:40;34.90;88.90
44487;DHT22;30191;50.908;6.962;2022-08-03T15:21:06;34.80;89.10
44487;DHT22;30191;50.908;6.962;2022-08-03T15:23:31;34.80;87.60
44487;DHT22;30191;50.908;6.962;2022-08-03T15:25:57;34.90;86.70
44487;DHT22;30191;50.908;6.962;2022-08-03T15:28:23;35.00;88.00
44487;DHT22;30191;50.908;6.962;2022-08-03T15:30:51;35.00;86.90
44487;DHT22;30191;50.908;6.962;2022-08-03T15:33:17;35.00;87.30
44487;DHT22;30191;50.908;6.962;2022-08-03T15:35:42;35.10;85.30
44487;DHT22;30191;50.908;6.962;2022-08-03T15:38:08;35.20;85.10
44487;DHT22;30191;50.908;6.962;2022-08-03T15:40:34;35.10;85.20
44487;DHT22;30191;50.908;6.962;2022-08-03T15:43:00;35.10;85.80
44487;DHT22;30191;50.908;6.962;2022-08-03T15:45:26;35.10;87.20
44487;DHT22;30191;50.908;6.962;2022-08-03T15:47:51;35.00;87.10
44487;DHT22;30191;50.908;6.962;2022-08-03T15:50:17;35.00;84.50
44487;DHT22;30191;50.908;6.962;2022-08-03T15:52:43;35.00;84.30
44487;DHT22;30191;50.908;6.962;2022-08-03T15:55:09;35.00;86.00
44487;DHT22;30191;50.908;6.962;2022-08-03T15:57:34;35.00;85.10
44487;DHT22;30191;50.908;6.962;2022-08-03T16:00:04;35.10;84.50
44487;DHT22;30191;50.908;6.962;2022-08-03T16:02:30;35.20;85.20
44487;DHT22;30191;50.908;6.962;2022-08-03T16:04:57;35.20;83.20
44487;DHT22;30191;50.908;6.962;2022-08-03T16:07:22;35.30;83.60
44487;DHT22;30191;50.908;6.962;2022-08-03T16:10:10;35.30;83.80